createdAt,value
2018-02-17T00:01:33.407Z,1.50
2018-02-17T00:04:00.414Z,1.50
2018-02-17T00:06:28.211Z,1.50
2018-02-17T00:08:55.187Z,1.50
2018-02-17T00:11:22.223Z,1.50
2018-02-17T00:13:49.291Z,1.50
2018-02-17T00:16:16.264Z,1.40
2018-02-17T00:18:43.241Z,1.40
2018-02-17T00:21:10.216Z,1.40
2018-02-17T00:23:37.195Z,1.40
2018-02-17T00:26:05.016Z,1.40
2018-02-17T00:28:31.992Z,1.40
2018-02-17T00:30:59.035Z,1.40
2018-02-17T00:33:26.017Z,1.40
2018-02-17T00:35:53.052Z,1.40
2018-02-17T00:38:20.044Z,1.30
2018-02-17T00:40:47.007Z,1.30
2018-02-17T00:43:14.008Z,1.30
2018-02-17T00:45:40.995Z,1.30
2018-02-17T00:48:07.982Z,1.40
2018-02-17T00:50:35.022Z,1.40
2018-02-17T00:53:02.009Z,1.40
2018-02-17T00:55:28.999Z,1.40
2018-02-17T00:57:55.950Z,1.30
2018-02-17T01:00:23.784Z,1.30
2018-02-17T01:02:50.840Z,1.30
2018-02-17T01:05:17.899Z,1.30
2018-02-17T01:07:44.876Z,1.30
2018-02-17T01:10:11.915Z,1.30
2018-02-17T01:12:38.888Z,1.30
2018-02-17T01:15:05.884Z,1.30
2018-02-17T01:17:32.899Z,1.30
2018-02-17T01:19:59.998Z,1.30
2018-02-17T01:22:27.015Z,1.30
2018-02-17T01:24:54.094Z,1.30
2018-02-17T01:27:21.063Z,1.30
2018-02-17T01:29:48.105Z,1.30
2018-02-17T01:32:15.079Z,1.30
2018-02-17T01:34:42.055Z,1.30
2018-02-17T01:37:09.099Z,1.30
2018-02-17T01:39:36.140Z,1.40
2018-02-17T01:42:03.107Z,1.40
2018-02-17T01:44:30.091Z,1.40
2018-02-17T01:46:57.070Z,1.40
2018-02-17T01:49:24.813Z,1.40
2018-02-17T01:51:51.853Z,1.40
2018-02-17T01:54:18.835Z,1.40
2018-02-17T01:56:45.803Z,1.40
2018-02-17T01:59:12.783Z,1.50
2018-02-17T02:01:40.519Z,1.50
2018-02-17T02:04:07.500Z,1.40
2018-02-17T02:06:34.476Z,1.40
2018-02-17T02:09:02.225Z,1.50
2018-02-17T02:11:29.198Z,1.40
2018-02-17T02:13:56.219Z,1.50
2018-02-17T02:16:23.279Z,1.50
2018-02-17T02:18:50.295Z,1.50
2018-02-17T02:21:17.300Z,1.50
2018-02-17T02:23:44.387Z,1.50
2018-02-17T02:26:11.367Z,1.50
2018-02-17T02:28:39.111Z,1.50
2018-02-17T02:31:06.176Z,1.50
2018-02-17T02:33:33.152Z,1.50
2018-02-17T02:36:00.128Z,1.50
2018-02-17T02:38:27.960Z,1.40
2018-02-17T02:40:54.940Z,1.40
2018-02-17T02:43:21.972Z,1.40
2018-02-17T02:45:49.033Z,1.40
2018-02-17T02:48:16.092Z,1.40
2018-02-17T02:50:43.151Z,1.50
2018-02-17T02:53:10.211Z,1.40
2018-02-17T02:55:37.276Z,1.50
2018-02-17T02:58:04.332Z,1.50
2018-02-17T03:00:31.306Z,1.50
2018-02-17T03:02:58.351Z,1.50
2018-02-17T03:05:25.407Z,1.50
2018-02-17T03:07:52.386Z,1.60
2018-02-17T03:10:19.367Z,1.50
2018-02-17T03:12:46.391Z,1.60
2018-02-17T03:15:13.371Z,1.60
2018-02-17T03:17:40.408Z,1.60
2018-02-17T03:20:07.383Z,1.60
2018-02-17T03:22:34.423Z,1.60
2018-02-17T03:25:01.398Z,1.60
2018-02-17T03:27:28.376Z,1.70
2018-02-17T03:29:55.347Z,1.70
2018-02-17T03:32:23.180Z,1.70
2018-02-17T03:34:50.239Z,1.70
2018-02-17T03:37:17.304Z,1.70
2018-02-17T03:39:44.361Z,1.70
2018-02-17T03:42:11.420Z,1.70
2018-02-17T03:44:38.491Z,1.70
2018-02-17T03:47:05.548Z,1.70
2018-02-17T03:49:32.647Z,1.70
2018-02-17T03:51:59.583Z,1.70
2018-02-17T03:54:26.560Z,1.70
2018-02-17T03:56:54.303Z,1.70
2018-02-17T03:59:21.275Z,1.70
2018-02-17T04:01:48.246Z,1.80
2018-02-17T04:04:15.271Z,1.80
2018-02-17T04:06:42.243Z,1.80
2018-02-17T04:09:09.283Z,1.80
2018-02-17T04:11:36.259Z,1.80
2018-02-17T04:14:03.239Z,1.80
2018-02-17T04:16:30.212Z,1.80
2018-02-17T04:18:57.971Z,1.80
2018-02-17T04:21:24.983Z,1.80
2018-02-17T04:23:51.963Z,1.80
2018-02-17T04:26:19.007Z,1.80
2018-02-17T04:28:45.991Z,1.80
2018-02-17T04:31:12.972Z,1.80
2018-02-17T04:33:40.801Z,1.80
2018-02-17T04:36:07.855Z,1.80
2018-02-17T04:38:34.836Z,1.80
2018-02-17T04:41:04.424Z,1.80
2018-02-17T04:43:46.291Z,1.80
2018-02-17T04:46:14.963Z,1.80
2018-02-17T04:48:47.986Z,1.80
2018-02-17T04:51:29.847Z,1.80
2018-02-17T04:54:02.703Z,1.80
2018-02-17T04:56:31.232Z,1.80
2018-02-17T04:59:04.115Z,1.80
2018-02-17T05:01:31.850Z,1.80
2018-02-17T05:03:59.477Z,1.70
2018-02-17T05:06:27.188Z,1.70
2018-02-17T05:09:06.047Z,1.70
2018-02-17T05:11:33.021Z,1.80
2018-02-17T05:14:06.607Z,1.80
2018-02-17T05:16:52.291Z,1.70
2018-02-17T05:19:19.270Z,1.70
2018-02-17T05:21:50.580Z,1.80
2018-02-17T05:24:21.181Z,1.80
2018-02-17T05:27:03.029Z,1.80
2018-02-17T05:29:30.008Z,1.80
2018-02-17T05:31:56.998Z,1.70
2018-02-17T05:34:29.944Z,1.80
2018-02-17T05:36:56.915Z,1.80
2018-02-17T05:39:38.783Z,1.70
2018-02-17T05:42:06.525Z,1.80
2018-02-17T05:44:36.231Z,1.80
2018-02-17T05:47:04.037Z,1.80
2018-02-17T05:49:33.246Z,1.80
2018-02-17T05:52:00.228Z,1.80
2018-02-17T05:54:28.059Z,1.80
2018-02-17T05:56:55.035Z,1.80
2018-02-17T05:59:22.067Z,1.90
2018-02-17T06:01:49.240Z,1.90
2018-02-17T06:04:17.086Z,1.90
2018-02-17T06:06:44.267Z,1.90
2018-02-17T06:09:11.328Z,1.90
2018-02-17T06:11:38.312Z,1.90
2018-02-17T06:14:05.302Z,1.90
2018-02-17T06:16:32.259Z,1.90
2018-02-17T06:19:00.017Z,1.90
2018-02-17T06:21:27.024Z,1.90
2018-02-17T06:23:54.819Z,1.90
2018-02-17T06:26:21.794Z,1.90
2018-02-17T06:28:48.767Z,1.90
2018-02-17T06:31:15.744Z,1.90
2018-02-17T06:33:43.584Z,1.90
2018-02-17T06:36:10.568Z,1.90
2018-02-17T06:38:37.603Z,1.90
2018-02-17T06:41:04.648Z,1.90
2018-02-17T06:43:31.619Z,1.90
2018-02-17T06:45:58.600Z,1.90
2018-02-17T06:48:25.628Z,2.00
2018-02-17T06:50:52.684Z,2.00
2018-02-17T06:53:19.768Z,2.00
2018-02-17T06:55:46.735Z,2.00
2018-02-17T06:58:13.741Z,2.00
2018-02-17T07:00:41.460Z,2.00
2018-02-17T07:03:08.495Z,2.00
2018-02-17T07:05:35.488Z,1.90
2018-02-17T07:08:02.468Z,2.00
2018-02-17T07:10:30.199Z,2.00
2018-02-17T07:12:57.184Z,2.00
2018-02-17T07:15:24.155Z,2.10
2018-02-17T07:17:51.903Z,2.10
2018-02-17T07:20:18.867Z,2.10
2018-02-17T07:22:45.867Z,2.10
2018-02-17T07:25:12.860Z,2.20
2018-02-17T07:27:39.841Z,2.20
2018-02-17T07:30:06.808Z,2.30
2018-02-17T07:32:33.791Z,2.20
2018-02-17T07:35:01.549Z,2.30
2018-02-17T07:37:28.563Z,2.20
2018-02-17T07:39:55.536Z,2.30
2018-02-17T07:42:22.517Z,2.30
2018-02-17T07:44:49.488Z,2.30
2018-02-17T07:47:17.235Z,2.30
2018-02-17T07:49:44.220Z,2.30
2018-02-17T07:52:11.963Z,2.30
2018-02-17T07:54:39.010Z,2.30
2018-02-17T07:57:05.997Z,2.40
2018-02-17T07:59:33.047Z,2.40
2018-02-17T08:02:00.028Z,2.40
2018-02-17T08:04:26.999Z,2.40
2018-02-17T08:06:54.828Z,2.50
2018-02-17T08:09:21.887Z,2.40
2018-02-17T08:11:48.862Z,2.50
2018-02-17T08:14:15.912Z,2.50
2018-02-17T08:16:42.916Z,2.50
2018-02-17T08:19:10.655Z,2.50
2018-02-17T08:21:37.709Z,2.50
2018-02-17T08:24:05.531Z,2.50
2018-02-17T08:26:33.268Z,2.60
2018-02-17T08:29:00.248Z,2.60
2018-02-17T08:31:27.224Z,2.60
2018-02-17T08:33:54.966Z,2.60
2018-02-17T08:36:22.003Z,2.60
2018-02-17T08:38:48.988Z,2.70
2018-02-17T08:41:16.032Z,2.70
2018-02-17T08:43:43.079Z,2.70
2018-02-17T08:46:10.148Z,2.70
2018-02-17T08:48:37.129Z,2.70
2018-02-17T08:51:04.159Z,2.70
2018-02-17T08:53:31.132Z,2.80
2018-02-17T08:55:58.179Z,2.80
2018-02-17T08:58:25.156Z,2.80
2018-02-17T09:00:52.199Z,2.80
2018-02-17T09:03:19.179Z,2.80
2018-02-17T09:05:46.218Z,2.90
2018-02-17T09:08:13.196Z,2.90
2018-02-17T09:10:46.284Z,2.90
2018-02-17T09:13:13.264Z,3.00
2018-02-17T09:15:41.839Z,3.00
2018-02-17T09:18:08.816Z,3.00
2018-02-17T09:20:35.846Z,3.00
2018-02-17T09:23:02.907Z,3.00
2018-02-17T09:25:29.973Z,3.10
2018-02-17T09:27:57.023Z,3.10
2018-02-17T09:30:24.100Z,3.10
2018-02-17T09:32:51.084Z,3.10
2018-02-17T09:35:18.059Z,3.20
2018-02-17T09:37:45.891Z,3.20
2018-02-17T09:40:12.867Z,3.20
2018-02-17T09:42:39.848Z,3.30
2018-02-17T09:45:06.815Z,3.30
2018-02-17T09:47:34.608Z,3.30
2018-02-17T09:50:02.411Z,3.30
2018-02-17T09:52:29.387Z,3.30
2018-02-17T09:54:56.435Z,3.40
2018-02-17T09:57:23.496Z,3.40
2018-02-17T09:59:50.463Z,3.40
2018-02-17T10:02:17.548Z,3.40
2018-02-17T10:04:44.675Z,3.40
2018-02-17T10:07:11.732Z,3.40
2018-02-17T10:09:38.704Z,3.40
2018-02-17T10:12:05.676Z,3.50
2018-02-17T10:14:32.664Z,3.50
2018-02-17T10:17:00.404Z,3.50
2018-02-17T10:19:27.393Z,3.50
2018-02-17T10:21:54.362Z,3.50
2018-02-17T10:24:22.143Z,3.50
2018-02-17T10:26:49.071Z,3.50
2018-02-17T10:29:16.052Z,3.60
2018-02-17T10:31:43.801Z,3.60
2018-02-17T10:34:10.787Z,3.60
2018-02-17T10:36:37.745Z,3.60
2018-02-17T10:39:05.488Z,3.60
2018-02-17T10:41:32.559Z,3.60
2018-02-17T10:43:59.583Z,3.70
2018-02-17T10:46:26.556Z,3.70
2018-02-17T10:48:53.536Z,3.70
2018-02-17T10:51:20.559Z,3.80
2018-02-17T10:53:47.632Z,3.80
2018-02-17T10:56:14.731Z,3.80
2018-02-17T10:58:41.740Z,3.90
2018-02-17T11:01:08.714Z,3.90
2018-02-17T11:03:35.755Z,3.90
2018-02-17T11:06:02.820Z,3.90
2018-02-17T11:08:29.883Z,4.00
2018-02-17T11:10:56.939Z,4.00
2018-02-17T11:13:24.611Z,4.00
2018-02-17T11:15:51.680Z,4.00
2018-02-17T11:18:18.740Z,4.00
2018-02-17T11:20:45.799Z,4.00
2018-02-17T11:23:12.795Z,4.10
2018-02-17T11:25:39.763Z,4.10
2018-02-17T11:28:07.518Z,4.10
2018-02-17T11:30:34.485Z,4.10
2018-02-17T11:33:01.456Z,4.10
2018-02-17T11:35:28.428Z,4.20
2018-02-17T11:37:56.248Z,4.20
2018-02-17T11:40:23.216Z,4.20
2018-02-17T11:42:50.200Z,4.20
2018-02-17T11:45:18.689Z,4.20
2018-02-17T11:47:45.668Z,4.20
2018-02-17T11:50:13.500Z,4.30
2018-02-17T11:52:40.479Z,4.30
2018-02-17T11:55:07.447Z,4.30
2018-02-17T11:57:34.436Z,4.40
2018-02-17T12:00:01.408Z,4.40
2018-02-17T12:02:28.385Z,4.40
2018-02-17T12:04:55.444Z,4.50
2018-02-17T12:07:22.451Z,4.50
2018-02-17T12:09:50.287Z,4.60
2018-02-17T12:12:23.075Z,4.60
2018-02-17T12:14:50.143Z,4.60
2018-02-17T12:17:17.204Z,4.60
2018-02-17T12:19:44.459Z,4.70
2018-02-17T12:22:11.403Z,4.70
2018-02-17T12:24:38.479Z,4.70
2018-02-17T12:27:05.448Z,4.80
2018-02-17T12:29:32.423Z,4.80
2018-02-17T12:31:59.394Z,4.80
2018-02-17T12:34:26.367Z,4.80
2018-02-17T12:36:54.107Z,4.90
2018-02-17T12:39:21.088Z,4.90
2018-02-17T12:41:48.061Z,4.90
2018-02-17T12:44:15.888Z,5.00
2018-02-17T12:46:42.860Z,5.00
2018-02-17T12:49:09.844Z,5.00
2018-02-17T12:51:36.859Z,5.00
2018-02-17T12:54:03.915Z,5.10
2018-02-17T12:56:30.975Z,5.10
2018-02-17T12:58:58.048Z,5.10
2018-02-17T13:01:25.107Z,5.10
2018-02-17T13:03:52.075Z,5.10
2018-02-17T13:06:19.052Z,5.10
2018-02-17T13:08:46.032Z,5.10
2018-02-17T13:11:13.959Z,5.20
2018-02-17T13:13:40.976Z,5.20
2018-02-17T13:16:07.913Z,5.20
2018-02-17T13:18:34.913Z,5.20
2018-02-17T13:21:01.875Z,5.20
2018-02-17T13:23:29.875Z,5.20
2018-02-17T13:25:56.844Z,5.20
2018-02-17T13:28:23.919Z,5.30
2018-02-17T13:30:50.956Z,5.30
2018-02-17T13:33:17.935Z,5.40
2018-02-17T13:35:45.669Z,5.50
2018-02-17T13:38:12.751Z,5.50
2018-02-17T13:40:39.719Z,5.50
2018-02-17T13:43:06.763Z,5.50
2018-02-17T13:45:33.735Z,5.60
2018-02-17T13:48:00.711Z,5.60
2018-02-17T13:50:28.448Z,5.60
2018-02-17T13:52:55.419Z,5.60
2018-02-17T13:55:22.396Z,5.60
2018-02-17T13:57:49.367Z,5.50
2018-02-17T14:00:16.391Z,5.50
2018-02-17T14:02:43.482Z,5.50
2018-02-17T14:05:10.427Z,5.50
2018-02-17T14:07:37.400Z,5.40
2018-02-17T14:10:04.428Z,5.40
2018-02-17T14:12:31.400Z,5.40
2018-02-17T14:14:58.379Z,5.40
2018-02-17T14:17:25.344Z,5.40
2018-02-17T14:19:52.359Z,5.40
2018-02-17T14:22:19.420Z,5.40
2018-02-17T14:24:46.404Z,5.40
2018-02-17T14:27:13.376Z,5.40
2018-02-17T14:29:40.355Z,5.40
2018-02-17T14:32:08.091Z,5.40
2018-02-17T14:34:35.122Z,5.40
2018-02-17T14:37:02.047Z,5.40
2018-02-17T14:39:29.787Z,5.50
2018-02-17T14:41:56.756Z,5.50
2018-02-17T14:44:23.735Z,5.50
2018-02-17T14:46:51.555Z,5.50
2018-02-17T14:49:18.531Z,5.50
2018-02-17T14:51:45.507Z,5.50
2018-02-17T14:54:12.615Z,5.50
2018-02-17T14:56:40.336Z,5.60
2018-02-17T14:59:07.367Z,5.50
2018-02-17T15:01:34.341Z,5.50
2018-02-17T15:04:01.320Z,5.60
2018-02-17T15:06:28.339Z,5.60
2018-02-17T15:08:56.130Z,5.50
2018-02-17T15:11:23.189Z,5.50
2018-02-17T15:13:50.162Z,5.50
2018-02-17T15:16:17.208Z,5.50
2018-02-17T15:18:44.268Z,5.50
2018-02-17T15:21:11.251Z,5.50
2018-02-17T15:23:38.226Z,5.50
2018-02-17T15:26:05.959Z,5.40
2018-02-17T15:28:33.011Z,5.40
2018-02-17T15:30:59.984Z,5.40
2018-02-17T15:33:27.960Z,5.40
2018-02-17T15:35:54.936Z,5.40
2018-02-17T15:38:21.907Z,5.40
2018-02-17T15:40:48.891Z,5.40
2018-02-17T15:43:16.627Z,5.40
2018-02-17T15:45:43.668Z,5.40
2018-02-17T15:48:10.635Z,5.30
2018-02-17T15:50:37.617Z,5.30
2018-02-17T15:53:04.644Z,5.30
2018-02-17T15:55:31.618Z,5.30
2018-02-17T15:57:58.595Z,5.30
2018-02-17T16:00:25.620Z,5.20
2018-02-17T16:02:52.592Z,5.20
2018-02-17T16:05:19.571Z,5.10
2018-02-17T16:07:46.543Z,5.10
2018-02-17T16:10:14.367Z,5.10
2018-02-17T16:12:41.340Z,5.10
2018-02-17T16:15:08.392Z,5.10
2018-02-17T16:17:35.360Z,5.00
2018-02-17T16:20:02.364Z,5.00
2018-02-17T16:22:30.103Z,5.00
2018-02-17T16:24:57.148Z,5.00
2018-02-17T16:27:24.121Z,4.90
2018-02-17T16:29:51.091Z,4.90
2018-02-17T16:32:18.128Z,4.90
2018-02-17T16:34:45.192Z,4.90
2018-02-17T16:37:12.263Z,4.80
2018-02-17T16:39:40.021Z,4.80
2018-02-17T16:42:07.005Z,4.80
2018-02-17T16:44:34.035Z,4.80
2018-02-17T16:47:01.025Z,4.80
2018-02-17T16:49:28.051Z,4.70
2018-02-17T16:51:55.119Z,4.70
2018-02-17T16:54:22.100Z,4.70
2018-02-17T16:56:49.139Z,4.60
2018-02-17T16:59:16.200Z,4.60
2018-02-17T17:01:43.168Z,4.60
2018-02-17T17:04:10.151Z,4.60
2018-02-17T17:06:37.173Z,4.60
2018-02-17T17:09:04.152Z,4.50
2018-02-17T17:11:31.124Z,4.50
2018-02-17T17:13:58.103Z,4.50
2018-02-17T17:16:25.838Z,4.50
2018-02-17T17:18:52.816Z,4.40
2018-02-17T17:21:19.787Z,4.50
2018-02-17T17:23:47.532Z,4.40
2018-02-17T17:26:14.579Z,4.40
2018-02-17T17:28:41.636Z,4.40
2018-02-17T17:31:08.616Z,4.40
2018-02-17T17:33:35.583Z,4.40
2018-02-17T17:36:02.608Z,4.40
2018-02-17T17:38:29.663Z,4.40
2018-02-17T17:40:56.652Z,4.40
2018-02-17T17:43:23.641Z,4.30
2018-02-17T17:45:51.396Z,4.30
2018-02-17T17:48:18.367Z,4.30
2018-02-17T17:50:46.284Z,4.30
2018-02-17T17:53:13.991Z,4.20
2018-02-17T17:55:41.036Z,4.20
2018-02-17T17:58:08.008Z,4.20
2018-02-17T18:00:34.982Z,4.20
2018-02-17T18:03:02.022Z,4.10
2018-02-17T18:05:29.000Z,4.10
2018-02-17T18:07:55.971Z,4.10
2018-02-17T18:10:22.952Z,4.10
2018-02-17T18:12:50.688Z,4.00
2018-02-17T18:15:17.672Z,4.00
2018-02-17T18:17:45.495Z,3.90
2018-02-17T18:20:12.641Z,3.90
2018-02-17T18:22:40.360Z,3.90
2018-02-17T18:25:07.395Z,3.90
2018-02-17T18:27:34.451Z,3.90
2018-02-17T18:30:01.431Z,3.80
2018-02-17T18:32:28.398Z,3.80
2018-02-17T18:34:55.436Z,3.80
2018-02-17T18:37:22.487Z,3.80
2018-02-17T18:39:49.470Z,3.80
2018-02-17T18:42:16.436Z,3.80
2018-02-17T18:44:43.420Z,3.70
2018-02-17T18:47:11.162Z,3.70
2018-02-17T18:49:38.149Z,3.60
2018-02-17T18:52:05.109Z,3.70
2018-02-17T18:54:32.939Z,3.60
2018-02-17T18:57:00.000Z,3.60
2018-02-17T18:59:26.981Z,3.60
2018-02-17T19:01:54.015Z,3.60
2018-02-17T19:04:20.996Z,3.60
2018-02-17T19:06:47.980Z,3.50
2018-02-17T19:09:14.951Z,3.50
2018-02-17T19:11:42.699Z,3.40
2018-02-17T19:14:09.668Z,3.40
2018-02-17T19:16:36.640Z,3.40
2018-02-17T19:19:04.384Z,3.30
2018-02-17T19:21:31.421Z,3.30
2018-02-17T19:23:58.392Z,3.30
2018-02-17T19:26:25.435Z,3.20
2018-02-17T19:28:52.508Z,3.20
2018-02-17T19:31:19.474Z,3.20
2018-02-17T19:33:46.520Z,3.10
2018-02-17T19:36:13.581Z,3.10
2018-02-17T19:38:40.548Z,3.10
2018-02-17T19:41:07.603Z,3.10
2018-02-17T19:43:34.568Z,3.00
2018-02-17T19:46:01.612Z,3.00
2018-02-17T19:48:28.667Z,3.00
2018-02-17T19:50:55.648Z,2.90
2018-02-17T19:53:22.624Z,2.90
2018-02-17T19:55:49.603Z,2.90
2018-02-17T19:58:17.340Z,2.80
2018-02-17T20:00:44.383Z,2.80
2018-02-17T20:03:11.452Z,2.80
2018-02-17T20:05:38.423Z,2.80
2018-02-17T20:08:05.463Z,2.80
2018-02-17T20:10:32.464Z,2.70
2018-02-17T20:13:00.214Z,2.70
2018-02-17T20:15:27.183Z,2.70
2018-02-17T20:17:54.216Z,2.70
2018-02-17T20:20:21.196Z,2.70
2018-02-17T20:22:48.232Z,2.60
2018-02-17T20:25:15.215Z,2.60
2018-02-17T20:27:42.248Z,2.50
2018-02-17T20:30:09.224Z,2.50
2018-02-17T20:32:36.196Z,2.40
2018-02-17T20:35:03.180Z,2.30
2018-02-17T20:37:31.008Z,2.30
2018-02-17T20:39:58.024Z,2.20
2018-02-17T20:42:24.959Z,2.20
2018-02-17T20:44:51.960Z,2.20
2018-02-17T20:47:18.948Z,2.10
2018-02-17T20:49:46.011Z,2.10
2018-02-17T20:52:13.004Z,2.00
2018-02-17T20:54:40.740Z,1.90
2018-02-17T20:57:07.875Z,1.90
2018-02-17T20:59:35.587Z,1.90
2018-02-17T21:02:02.573Z,1.90
2018-02-17T21:04:29.552Z,1.90
2018-02-17T21:06:57.364Z,1.90
2018-02-17T21:09:24.340Z,1.90
2018-02-17T21:11:51.314Z,1.90
2018-02-17T21:14:18.344Z,1.90
2018-02-17T21:16:45.323Z,1.90
2018-02-17T21:19:12.358Z,1.90
2018-02-17T21:21:39.424Z,1.90
2018-02-17T21:24:06.475Z,1.80
2018-02-17T21:26:33.464Z,1.80
2018-02-17T21:29:00.548Z,1.80
2018-02-17T21:31:27.484Z,1.80
2018-02-17T21:33:54.524Z,1.80
2018-02-17T21:36:21.495Z,1.80
2018-02-17T21:38:48.542Z,1.70
2018-02-17T21:41:15.515Z,1.70
2018-02-17T21:43:42.556Z,1.70
2018-02-17T21:46:09.619Z,1.70
2018-02-17T21:48:36.585Z,1.70
2018-02-17T21:51:03.632Z,1.70
2018-02-17T21:53:30.603Z,1.60
2018-02-17T21:55:57.656Z,1.60
2018-02-17T21:58:24.622Z,1.60
2018-02-17T22:00:51.628Z,1.50
2018-02-17T22:03:19.448Z,1.50
2018-02-17T22:05:46.428Z,1.40
2018-02-17T22:08:13.484Z,1.40
2018-02-17T22:10:40.523Z,1.40
2018-02-17T22:13:07.604Z,1.30
2018-02-17T22:15:34.640Z,1.30
2018-02-17T22:18:01.612Z,1.30
2018-02-17T22:20:28.592Z,1.20
2018-02-17T22:22:55.616Z,1.20
2018-02-17T22:25:22.604Z,1.20
2018-02-17T22:27:49.583Z,1.20
2018-02-17T22:30:17.328Z,1.20
2018-02-17T22:32:44.295Z,1.20
2018-02-17T22:35:11.335Z,1.20
2018-02-17T22:37:38.388Z,1.20
2018-02-17T22:40:05.360Z,1.20
2018-02-17T22:42:32.410Z,1.20
2018-02-17T22:44:59.379Z,1.20
2018-02-17T22:47:26.351Z,1.20
2018-02-17T22:49:54.832Z,1.20
2018-02-17T22:52:21.876Z,1.20
2018-02-17T22:54:48.951Z,1.20
2018-02-17T22:57:15.936Z,1.10
2018-02-17T22:59:43.663Z,0.90
2018-02-17T23:02:10.643Z,1.00
2018-02-17T23:04:37.615Z,0.90
2018-02-17T23:07:04.590Z,0.90
2018-02-17T23:09:31.559Z,0.80
2018-02-17T23:11:59.326Z,0.80
2018-02-17T23:14:26.298Z,0.70
2018-02-17T23:16:54.111Z,0.70
2018-02-17T23:19:21.088Z,0.70
2018-02-17T23:21:48.088Z,0.60
2018-02-17T23:24:15.074Z,0.60
2018-02-17T23:26:42.052Z,0.60
2018-02-17T23:29:09.115Z,0.50
2018-02-17T23:31:36.101Z,0.50
2018-02-17T23:34:03.129Z,0.50
2018-02-17T23:36:30.103Z,0.50
2018-02-17T23:38:57.242Z,0.50
2018-02-17T23:41:24.220Z,0.40
2018-02-17T23:43:51.285Z,0.40
2018-02-17T23:46:18.280Z,0.40
2018-02-17T23:48:46.015Z,0.30
2018-02-17T23:51:13.004Z,0.30
2018-02-17T23:53:40.739Z,0.30
2018-02-17T23:56:07.716Z,0.30
2018-02-17T23:58:34.680Z,0.30
